Time;durP1;ratioP1;P1;durP2;ratioP2;P2;SDS_P1;SDS_P2;PMS_P1;PMS_P2;Temp;Humidity;BMP_temperature;BMP_pressure;BME280_temperature;BME280_humidity;BME280_pressure;Samples;Min_cycle;Max_cycle;Signal;HPM_P1;HPM_P2
2021/03/27 07:30:06;;;;;;;24.17;4.72;;;7.70;99.90;;;;;;5102586;27;713669;-75
2021/03/27 07:32:44;;;;;;;16.08;3.22;;;8.20;99.90;;;;;;5103476;28;20051;-71
2021/03/27 07:35:36;;;;;;;24.02;4.00;;;8.50;99.90;;;;;;5114560;28;20040;-76
2021/03/27 07:38:23;;;;;;;18.73;3.35;;;8.80;99.90;;;;;;5089762;28;20238;-76
2021/03/27 07:41:05;;;;;;;18.80;3.55;;;8.90;99.90;;;;;;5126797;27;20066;-77
2021/03/27 07:44:10;;;;;;;20.25;3.60;;;8.80;99.90;;;;;;5113170;27;20047;-77
2021/03/27 07:47:09;;;;;;;14.77;2.83;;;8.60;99.90;;;;;;5119060;27;20933;-72
2021/03/27 07:50:06;;;;;;;20.17;4.00;;;9.10;99.90;;;;;;5113278;27;20084;-73
2021/03/27 07:52:48;;;;;;;24.75;4.38;;;9.50;99.90;;;;;;5116138;28;20044;-73
2021/03/27 07:56:05;;;;;;;19.83;3.00;;;9.90;99.90;;;;;;5106786;27;20078;-72
2021/03/27 07:58:55;;;;;;;20.00;3.28;;;10.20;99.90;;;;;;5079146;28;20433;-70
2021/03/27 08:01:52;;;;;;;18.08;3.33;;;10.30;99.90;;;;;;5109199;28;20047;-72
2021/03/27 08:04:39;;;;;;;27.67;9.85;;;10.50;99.90;;;;;;5114546;28;20051;-73
2021/03/27 08:07:24;;;;;;;13.57;4.97;;;10.10;99.90;;;;;;5120371;27;20039;-73
2021/03/27 08:10:13;;;;;;;15.57;2.85;;;8.90;99.90;;;;;;5117279;27;20483;-72
2021/03/27 08:12:54;;;;;;;12.50;3.53;;;9.10;99.90;;;;;;5120361;27;20130;-72
2021/03/27 08:15:47;;;;;;;25.10;5.40;;;8.90;99.90;;;;;;5109509;27;20038;-72
2021/03/27 08:18:38;;;;;;;25.02;5.03;;;9.00;99.90;;;;;;5114232;27;20118;-70
2021/03/27 08:21:24;;;;;;;10.57;2.75;;;9.40;99.90;;;;;;5094375;27;20047;-72
2021/03/27 08:24:03;;;;;;;20.23;4.28;;;10.50;99.90;;;;;;5108752;27;20380;-70
2021/03/27 08:27:07;;;;;;;20.73;5.78;;;10.80;99.90;;;;;;5106487;28;20064;-72
2021/03/27 08:30:01;;;;;;;18.85;3.97;;;11.80;99.90;;;;;;5107941;28;20078;-72
2021/03/27 08:32:38;;;;;;;20.20;5.90;;;11.90;99.90;;;;;;5081990;28;20158;-74
2021/03/27 08:35:21;;;;;;;27.77;7.10;;;11.70;99.90;;;;;;5094220;28;20104;-81
2021/03/27 08:38:17;;;;;;;18.38;4.25;;;12.40;99.90;;;;;;5085847;27;20070;-78
2021/03/27 08:41:29;;;;;;;19.45;5.72;;;12.80;98.70;;;;;;5058820;28;20043;-80
2021/03/27 08:44:28;;;;;;;19.50;4.25;;;12.30;96.60;;;;;;5078058;28;20043;-79
2021/03/27 08:47:01;;;;;;;13.40;3.08;;;12.00;98.40;;;;;;5101015;28;20040;-79
2021/03/27 08:49:51;;;;;;;15.07;3.53;;;11.10;99.90;;;;;;5093853;28;20074;-78
2021/03/27 08:52:39;;;;;;;20.48;5.28;;;12.20;95.50;;;;;;5110629;27;20072;-78
2021/03/27 08:55:52;;;;;;;12.63;3.17;;;13.10;95.40;;;;;;5087258;28;20496;-78
2021/03/27 08:58:42;;;;;;;12.30;3.35;;;14.00;93.40;;;;;;5025392;28;20052;-77
2021/03/27 09:01:23;;;;;;;12.57;3.90;;;13.40;91.10;;;;;;5093736;28;20063;-78
2021/03/27 09:03:52;;;;;;;12.65;3.00;;;14.30;87.20;;;;;;5098178;28;20046;-77
2021/03/27 09:06:51;;;;;;;12.35;3.65;;;14.60;80.00;;;;;;5105859;27;20044;-81
2021/03/27 09:09:37;;;;;;;13.38;3.38;;;13.30;91.10;;;;;;5095419;28;20251;-81
2021/03/27 09:12:29;;;;;;;15.85;4.30;;;14.30;86.90;;;;;;5079206;27;20569;-79
2021/03/27 09:15:15;;;;;;;17.60;4.63;;;14.90;72.00;;;;;;5098465;27;20039;-79
2021/03/27 09:18:02;;;;;;;17.90;4.45;;;15.80;70.40;;;;;;5088269;28;20109;-80
2021/03/27 09:20:43;;;;;;;18.38;7.88;;;15.10;70.30;;;;;;5100582;28;20130;-79
2021/03/27 09:23:30;;;;;;;14.15;4.15;;;13.10;84.60;;;;;;5096284;28;20067;-78
2021/03/27 09:26:19;;;;;;;15.30;3.78;;;13.20;91.30;;;;;;5102916;28;20032;-81
2021/03/27 09:29:02;;;;;;;13.25;2.78;;;12.20;93.30;;;;;;5081925;28;20396;-81
2021/03/27 09:32:01;;;;;;;11.20;3.08;;;11.40;93.20;;;;;;5095663;27;20031;-79
2021/03/27 09:34:42;;;;;;;13.00;2.75;;;11.20;93.80;;;;;;5087501;28;20590;-78
2021/03/27 09:37:47;;;;;;;11.93;3.13;;;11.70;93.70;;;;;;5100402;28;20032;-79
2021/03/27 09:40:24;;;;;;;16.90;3.15;;;12.90;89.50;;;;;;5097560;28;20052;-79
2021/03/27 09:42:52;;;;;;;11.00;3.25;;;13.00;89.80;;;;;;5101103;28;20043;-80
2021/03/27 09:45:49;;;;;;;11.65;3.63;;;12.30;89.90;;;;;;5089407;28;20062;-78
2021/03/27 09:48:47;;;;;;;11.98;3.13;;;12.20;91.40;;;;;;5066231;28;20051;-79
2021/03/27 09:51:46;;;;;;;14.45;3.63;;;11.70;94.00;;;;;;5106131;28;20040;-79
2021/03/27 09:54:33;;;;;;;17.02;3.30;;;11.90;91.80;;;;;;5086732;28;20460;-79
2021/03/27 09:57:08;;;;;;;16.80;3.10;;;11.20;95.60;;;;;;5099602;28;20040;-78
2021/03/27 10:00:05;;;;;;;18.08;3.92;;;11.30;96.40;;;;;;5103004;28;20529;-79
2021/03/27 10:02:46;;;;;;;16.35;3.05;;;11.10;97.30;;;;;;5037259;28;20052;-78
2021/03/27 10:05:22;;;;;;;15.82;3.08;;;10.60;99.10;;;;;;5076290;28;20085;-78
2021/03/27 10:08:03;;;;;;;18.00;3.03;;;9.80;99.90;;;;;;5115133;27;20188;-79
2021/03/27 10:10:43;;;;;;;14.18;2.70;;;9.80;99.90;;;;;;5100307;27;20411;-81
2021/03/27 10:13:24;;;;;;;17.95;3.40;;;9.30;99.90;;;;;;5097362;28;20036;-81
2021/03/27 10:15:57;;;;;;;17.95;3.30;;;9.30;99.90;;;;;;5100052;27;20346;-81
2021/03/27 10:18:34;;;;;;;17.23;3.42;;;9.70;99.90;;;;;;5108168;27;20054;-81
2021/03/27 10:21:27;;;;;;;21.65;4.55;;;9.90;99.90;;;;;;5093662;27;20380;-82
2021/03/27 10:24:03;;;;;;;24.80;4.32;;;9.70;99.90;;;;;;5090906;27;20040;-83
2021/03/27 10:26:53;;;;;;;18.33;3.58;;;10.40;99.90;;;;;;5116729;27;20201;-83
2021/03/27 10:29:46;;;;;;;20.33;3.53;;;11.20;99.90;;;;;;5083180;27;20048;-85
2021/03/27 10:32:31;;;;;;;17.55;3.25;;;10.80;99.90;;;;;;5111713;27;20285;-83
2021/03/27 10:34:57;;;;;;;19.48;3.55;;;10.50;99.90;;;;;;5117961;27;20051;-83
2021/03/27 10:37:43;;;;;;;16.13;3.03;;;10.20;99.90;;;;;;5088057;28;20036;-83
2021/03/27 10:40:27;;;;;;;13.23;3.05;;;10.00;99.90;;;;;;5090414;28;20494;-81
2021/03/27 10:43:26;;;;;;;20.30;3.97;;;10.00;99.90;;;;;;5096014;28;20121;-84
2021/03/27 10:46:03;;;;;;;19.75;3.63;;;10.00;99.90;;;;;;5087966;28;20040;-82
2021/03/27 10:48:41;;;;;;;19.27;3.15;;;9.70;99.90;;;;;;5106829;28;20078;-83
2021/03/27 10:51:17;;;;;;;17.05;3.50;;;10.20;99.90;;;;;;5071054;28;20047;-83
2021/03/27 10:54:21;;;;;;;23.85;3.60;;;9.80;99.90;;;;;;5086022;28;20105;-83
2021/03/27 10:57:18;;;;;;;18.38;2.92;;;9.50;99.90;;;;;;5118971;27;20068;-83
2021/03/27 11:00:33;;;;;;;14.77;2.33;;;8.80;99.90;;;;;;5097398;27;20160;-82
2021/03/27 11:03:30;;;;;;;15.05;2.28;;;8.50;99.90;;;;;;5069359;28;20067;-82
2021/03/27 11:06:28;;;;;;;9.35;1.95;;;8.50;99.90;;;;;;5098353;28;20455;-83
2021/03/27 11:09:17;;;;;;;5.15;1.23;;;8.00;99.90;;;;;;5070799;28;20085;-80
2021/03/27 11:11:56;;;;;;;11.27;2.35;;;7.90;99.90;;;;;;5094725;28;20040;-82
2021/03/27 11:14:49;;;;;;;14.75;2.13;;;7.70;99.90;;;;;;5051469;28;20048;-83
2021/03/27 11:17:46;;;;;;;10.60;2.23;;;7.20;99.90;;;;;;5103441;28;20039;-82
2021/03/27 11:20:37;;;;;;;12.27;2.55;;;7.40;99.90;;;;;;5103033;28;20043;-82
2021/03/27 11:23:21;;;;;;;14.45;2.22;;;6.80;99.90;;;;;;5096042;28;20404;-83
2021/03/27 11:26:29;;;;;;;16.00;2.85;;;6.70;99.90;;;;;;5102609;28;20065;-82
2021/03/27 11:29:05;;;;;;;19.67;3.95;;;7.00;99.90;;;;;;5094430;28;20052;-82
2021/03/27 11:31:38;;;;;;;16.88;3.45;;;7.10;99.90;;;;;;5083742;28;20047;-82
2021/03/27 11:34:12;;;;;;;18.75;3.40;;;7.00;99.90;;;;;;5095288;28;20040;-81
2021/03/27 11:37:05;;;;;;;18.30;3.70;;;7.00;99.90;;;;;;5104142;28;20036;-83
2021/03/27 11:39:31;;;;;;;;;;;7.20;99.90;;;;;;5099566;28;20120;-81
2021/03/27 11:42:04;;;;;;;14.32;2.90;;;7.60;99.90;;;;;;5106054;28;20383;-79
2021/03/27 11:44:57;;;;;;;15.23;2.83;;;8.10;99.90;;;;;;5101646;28;20105;-83
2021/03/27 11:47:30;;;;;;;22.35;3.80;;;9.50;99.90;;;;;;5095594;28;20040;-82
2021/03/27 11:50:20;;;;;;;19.00;3.28;;;10.50;99.90;;;;;;5090100;28;20043;-83
2021/03/27 11:52:59;;;;;;;22.13;4.47;;;10.90;99.90;;;;;;5080545;28;20040;-83
2021/03/27 11:55:36;;;;;;;20.75;3.70;;;10.30;99.90;;;;;;5079081;28;20047;-82
2021/03/27 11:58:27;;;;;;;16.75;3.47;;;11.20;99.90;;;;;;5094643;28;20537;-81
2021/03/27 12:01:02;;;;;;;18.90;3.58;;;11.10;99.90;;;;;;5097159;28;20040;-82
2021/03/27 12:03:49;;;;;;;18.67;3.97;;;12.10;99.90;;;;;;5081679;28;20045;-81
2021/03/27 12:06:22;;;;;;;21.85;4.53;;;11.90;99.90;;;;;;5089115;28;20093;-82
2021/03/27 12:09:10;;;;;;;19.30;4.47;;;12.10;99.90;;;;;;5104030;28;20093;-82
2021/03/27 12:12:17;;;;;;;16.80;4.28;;;12.80;99.90;;;;;;5097366;28;20047;-82
2021/03/27 12:14:54;;;;;;;14.73;3.20;;;13.10;99.90;;;;;;5039621;28;20048;-82
2021/03/27 12:17:35;;;;;;;23.13;4.32;;;13.00;99.90;;;;;;5109368;28;20062;-83
2021/03/27 12:20:25;;;;;;;19.27;3.83;;;12.60;99.90;;;;;;5104991;28;20039;-83
2021/03/27 12:23:04;;;;;;;17.20;3.45;;;12.80;99.90;;;;;;5076462;28;20534;-82
2021/03/27 12:26:02;;;;;;;15.48;3.47;;;12.80;99.90;;;;;;5101017;28;20064;-81
2021/03/27 12:28:35;;;;;;;17.95;3.50;;;12.60;99.90;;;;;;5095981;28;20238;-83
2021/03/27 12:31:32;;;;;;;13.30;3.35;;;12.80;99.90;;;;;;5102717;28;20084;-82
2021/03/27 12:34:01;;;;;;;16.77;3.85;;;12.80;99.90;;;;;;5101051;28;20035;-81
2021/03/27 12:36:50;;;;;;;22.23;4.78;;;13.10;99.90;;;;;;5106449;28;20039;-83
2021/03/27 12:39:53;;;;;;;19.13;3.58;;;13.50;99.50;;;;;;5104841;28;20043;-82
2021/03/27 12:42:31;;;;;;;;;;;13.30;98.90;;;;;;5105883;28;20091;-82
2021/03/27 12:45:00;;;;;;;16.55;4.18;;;13.80;97.40;;;;;;5107197;28;20272;-81
2021/03/27 12:47:35;;;;;;;21.25;3.40;;;14.00;97.80;;;;;;5098416;28;20505;-81
2021/03/27 12:50:08;;;;;;;12.20;3.13;;;13.20;96.80;;;;;;5106792;28;20047;-79
2021/03/27 12:53:03;;;;;;;11.85;3.13;;;11.90;99.90;;;;;;5091898;28;20040;-80
2021/03/27 12:55:43;;;;;;;9.07;2.55;;;11.40;99.90;;;;;;5088743;28;20039;-80
2021/03/27 12:58:38;;;;;;;13.32;2.60;;;10.70;99.90;;;;;;5094100;28;20028;-79
2021/03/27 13:01:24;;;;;;;6.32;1.73;;;10.20;99.90;;;;;;5089281;28;20043;-80
2021/03/27 13:04:18;;;;;;;7.13;1.42;;;10.10;99.90;;;;;;5099850;28;20047;-79
2021/03/27 13:07:05;;;;;;;8.18;1.65;;;10.40;99.90;;;;;;5102837;28;20043;-80
2021/03/27 13:09:52;;;;;;;9.93;1.90;;;10.40;99.90;;;;;;5097699;28;20036;-78
2021/03/27 13:12:36;;;;;;;6.85;1.50;;;11.10;99.90;;;;;;5098381;27;20460;-80
2021/03/27 13:15:08;;;;;;;;;;;10.90;99.90;;;;;;5101175;28;20043;-80
2021/03/27 13:17:48;;;;;;;9.80;1.77;;;11.10;99.90;;;;;;5104120;28;19930;-81
2021/03/27 13:20:34;;;;;;;13.35;2.15;;;12.20;99.90;;;;;;5103105;28;20059;-82
2021/03/27 13:23:09;;;;;;;14.48;2.90;;;12.00;99.90;;;;;;5099404;28;20040;-80
2021/03/27 13:25:42;;;;;;;19.45;3.50;;;11.80;99.90;;;;;;5100073;28;20536;-80
2021/03/27 13:28:11;;;;;;;16.75;3.33;;;12.70;99.90;;;;;;5086935;28;20500;-80
2021/03/27 13:30:51;;;;;;;21.50;3.88;;;12.40;99.90;;;;;;5104863;27;20464;-81
2021/03/27 13:33:31;;;;;;;19.35;4.28;;;12.90;99.90;;;;;;5103488;28;20047;-81
2021/03/27 13:36:06;;;;;;;15.95;4.30;;;13.40;99.90;;;;;;5104738;28;20156;-81
2021/03/27 13:38:55;;;;;;;19.70;3.78;;;13.60;98.10;;;;;;5088255;27;20072;-80
2021/03/27 13:41:36;;;;;;;17.38;4.30;;;13.70;98.60;;;;;;5082597;28;20078;-81
2021/03/27 13:44:23;;;;;;;15.13;3.95;;;13.30;96.90;;;;;;5099465;28;20101;-81
2021/03/27 13:47:33;;;;;;;17.98;4.47;;;12.90;97.10;;;;;;5100132;27;20171;-81
2021/03/27 13:50:18;;;;;;;17.38;3.80;;;12.40;98.20;;;;;;5101710;27;20035;-81
2021/03/27 13:53:17;;;;;;;23.77;4.35;;;12.00;98.90;;;;;;5086055;28;20058;-82
2021/03/27 13:56:03;;;;;;;17.45;3.40;;;12.00;99.70;;;;;;5101666;27;20067;-81
2021/03/27 13:59:07;;;;;;;20.35;3.85;;;12.10;99.90;;;;;;5110674;27;20128;-83
2021/03/27 14:01:32;;;;;;;15.40;3.45;;;11.70;99.70;;;;;;5105334;28;20312;-82
2021/03/27 14:04:19;;;;;;;20.38;5.28;;;11.80;99.90;;;;;;5092026;27;20400;-79
2021/03/27 14:06:59;;;;;;;18.60;3.85;;;11.50;99.90;;;;;;5110024;27;20047;-80
2021/03/27 14:09:32;;;;;;;18.83;3.95;;;12.10;99.90;;;;;;5101864;28;20141;-81
2021/03/27 14:12:25;;;;;;;21.45;3.95;;;11.90;99.90;;;;;;5089835;28;20169;-82
2021/03/27 14:15:03;;;;;;;21.65;5.15;;;12.30;99.90;;;;;;5099379;28;20056;-81
2021/03/27 14:17:54;;;;;;;17.45;3.63;;;12.20;99.90;;;;;;5099039;28;20042;-83
2021/03/27 14:20:38;;;;;;;18.55;4.60;;;12.20;99.90;;;;;;5087333;28;20047;-81
2021/03/27 14:23:29;;;;;;;16.30;3.60;;;12.50;99.90;;;;;;5096325;28;20351;-81
2021/03/27 14:26:19;;;;;;;22.77;4.22;;;12.10;98.60;;;;;;5106628;27;20062;-81
2021/03/27 14:28:53;;;;;;;19.00;4.40;;;11.80;99.20;;;;;;5103487;27;20043;-81
2021/03/27 14:31:43;;;;;;;16.38;3.75;;;12.00;99.70;;;;;;5084470;28;20109;-84
2021/03/27 14:34:24;;;;;;;19.48;4.25;;;12.00;99.90;;;;;;5095877;27;20495;-82
2021/03/27 14:37:27;;;;;;;22.10;3.78;;;12.00;99.90;;;;;;5101874;27;20046;-82
2021/03/27 14:40:31;;;;;;;16.95;4.03;;;11.80;99.90;;;;;;5096528;27;20089;-80
2021/03/27 14:43:17;;;;;;;18.38;4.35;;;11.60;99.90;;;;;;5102184;27;20040;-80
2021/03/27 14:46:08;;;;;;;18.00;3.45;;;11.30;99.90;;;;;;5097422;28;20124;-81
2021/03/27 14:48:38;;;;;;;21.77;4.35;;;11.30;99.90;;;;;;5105951;28;20043;-80
2021/03/27 14:51:16;;;;;;;24.65;5.05;;;11.20;99.90;;;;;;5090427;28;20051;-81
2021/03/27 14:53:51;;;;;;;26.17;5.85;;;11.20;99.90;;;;;;5088962;28;20048;-82
2021/03/27 14:56:24;;;;;;;21.23;3.67;;;11.50;99.90;;;;;;5085888;28;20094;-82
2021/03/27 14:59:09;;;;;;;22.65;4.50;;;11.20;99.90;;;;;;5091005;28;20036;-80
2021/03/27 15:01:44;;;;;;;23.00;4.53;;;11.40;99.90;;;;;;5087658;28;20122;-81
2021/03/27 15:04:10;;;;;;;23.40;4.95;;;11.60;99.90;;;;;;5100618;28;20040;-81
2021/03/27 15:06:53;;;;;;;19.05;4.47;;;11.50;99.90;;;;;;5106167;28;20039;-81
2021/03/27 15:10:09;;;;;;;20.25;4.50;;;11.50;99.90;;;;;;5097016;28;20066;-82
2021/03/27 15:12:41;;;;;;;21.05;4.53;;;11.30;99.90;;;;;;5091362;28;20043;-82
2021/03/27 15:15:10;;;;;;;23.08;6.15;;;11.20;99.90;;;;;;5099801;28;20063;-81
2021/03/27 15:17:48;;;;;;;29.90;7.28;;;11.00;99.90;;;;;;5105090;28;20054;-81
2021/03/27 15:20:21;;;;;;;27.25;6.28;;;11.00;99.90;;;;;;5097480;28;20046;-80
2021/03/27 15:23:03;;;;;;;22.40;5.15;;;11.20;99.90;;;;;;5080867;28;20048;-77
2021/03/27 15:28:27;;;;;;;21.52;4.70;;;11.10;99.90;;;;;;5104545;28;20040;-83
2021/03/27 15:31:05;;;;;;;32.63;4.85;;;11.20;99.90;;;;;;5106340;28;20066;-84
2021/03/27 15:33:52;;;;;;;21.88;4.97;;;11.00;99.90;;;;;;5098000;27;20051;-84
2021/03/27 15:36:41;;;;;;;21.98;5.40;;;11.10;99.90;;;;;;5090883;28;20044;-83
2021/03/27 15:39:19;;;;;;;28.77;5.20;;;10.90;99.90;;;;;;5104375;28;20171;-82
2021/03/27 15:41:53;;;;;;;24.55;4.43;;;10.60;99.90;;;;;;5107127;28;20048;-83
2021/03/27 15:44:28;;;;;;;22.67;3.58;;;10.20;99.90;;;;;;5104627;28;20052;-83
2021/03/27 15:46:57;;;;;;;17.23;3.00;;;10.10;99.90;;;;;;5090262;28;20480;-83
2021/03/27 15:49:23;;;;;;;13.38;2.72;;;9.70;99.90;;;;;;5102259;28;20518;-80
2021/03/27 15:52:08;;;;;;;13.60;2.80;;;9.70;99.90;;;;;;5110386;28;20071;-85
2021/03/27 15:54:52;;;;;;;11.95;2.22;;;9.60;99.90;;;;;;5104780;28;20100;-84
2021/03/27 15:57:34;;;;;;;8.10;1.60;;;9.50;99.90;;;;;;5109214;28;20181;-84
2021/03/27 16:00:15;;;;;;;9.80;1.80;;;9.10;99.90;;;;;;5087274;28;20051;-85
2021/03/27 16:03:04;;;;;;;8.20;1.58;;;8.90;99.90;;;;;;5109875;28;20082;-83
2021/03/27 16:05:52;;;;;;;7.65;1.27;;;8.90;99.90;;;;;;5109165;28;20054;-83
2021/03/27 16:08:26;;;;;;;8.52;2.33;;;9.00;99.90;;;;;;5109640;28;20048;-82
2021/03/27 16:11:21;;;;;;;11.63;2.05;;;9.00;99.90;;;;;;5107524;28;20044;-83
2021/03/27 16:14:14;;;;;;;9.45;2.60;;;9.10;99.90;;;;;;5015630;28;20153;-85
2021/03/27 16:16:57;;;;;;;18.58;2.88;;;9.40;99.90;;;;;;5078955;28;20419;-83
2021/03/27 16:19:56;;;;;;;19.27;3.60;;;9.40;99.90;;;;;;5103995;28;20040;-84
2021/03/27 16:22:52;;;;;;;21.75;4.90;;;9.40;99.90;;;;;;5109248;28;20043;-82
2021/03/27 16:25:35;;;;;;;22.77;3.85;;;9.40;99.90;;;;;;5110199;28;20157;-85
2021/03/27 16:28:21;;;;;;;21.70;4.63;;;9.60;99.90;;;;;;5091030;28;20153;-83
2021/03/27 16:30:55;;;;;;;23.52;4.22;;;9.30;99.90;;;;;;5105317;28;20052;-85
2021/03/27 16:33:45;;;;;;;26.63;4.60;;;9.50;99.90;;;;;;5110286;28;20048;-84
2021/03/27 16:36:20;;;;;;;22.45;5.47;;;9.80;99.90;;;;;;5099698;28;20130;-83
2021/03/27 16:39:01;;;;;;;30.52;4.38;;;9.60;99.90;;;;;;5108457;28;20039;-85
2021/03/27 16:41:55;;;;;;;21.42;4.65;;;9.90;99.90;;;;;;5103521;28;20077;-84
2021/03/27 16:44:48;;;;;;;22.60;4.22;;;9.80;99.90;;;;;;5105732;28;20047;-84
2021/03/27 16:47:20;;;;;;;18.15;4.13;;;9.70;99.90;;;;;;5100717;28;20062;-84
2021/03/27 16:50:07;;;;;;;33.85;5.47;;;9.60;99.90;;;;;;5108765;28;20046;-83
2021/03/27 16:52:56;;;;;;;28.85;5.32;;;9.30;99.90;;;;;;5105416;28;20122;-83
2021/03/27 16:55:31;;;;;;;24.75;4.40;;;9.40;99.90;;;;;;5091219;28;20050;-82
2021/03/27 16:58:13;;;;;;;16.20;3.08;;;9.30;99.90;;;;;;5108796;28;20114;-84
2021/03/27 17:01:01;;;;;;;20.55;3.20;;;9.20;99.90;;;;;;5103607;28;20036;-83
2021/03/27 17:03:54;;;;;;;21.50;3.00;;;9.20;99.90;;;;;;5111251;28;20388;-85
2021/03/27 17:06:53;;;;;;;16.00;3.38;;;9.40;99.90;;;;;;5109359;28;20078;-84
2021/03/27 17:09:30;;;;;;;20.70;3.60;;;9.40;99.90;;;;;;5066546;28;20056;-83
2021/03/27 17:12:14;;;;;;;18.38;4.57;;;9.40;99.90;;;;;;5111202;28;20228;-81
2021/03/27 17:14:39;;;;;;;25.98;3.90;;;9.40;99.90;;;;;;5111529;28;20039;-83
2021/03/27 17:17:19;;;;;;;23.35;6.03;;;9.30;99.90;;;;;;5110815;28;20061;-85
2021/03/27 17:20:06;;;;;;;28.83;4.55;;;9.40;99.90;;;;;;5111699;28;20043;-83
2021/03/27 17:23:09;;;;;;;28.98;5.80;;;9.30;99.90;;;;;;5109630;28;20047;-83
2021/03/27 17:26:06;;;;;;;29.08;4.45;;;9.30;99.90;;;;;;5107602;28;20048;-83
2021/03/27 17:28:47;;;;;;;22.40;4.13;;;9.10;99.90;;;;;;5107655;28;20101;-83
2021/03/27 17:31:31;;;;;;;24.95;4.72;;;9.10;99.90;;;;;;5106257;28;20047;-83
2021/03/27 17:34:17;;;;;;;21.60;3.97;;;9.00;99.90;;;;;;5109409;28;20047;-82
2021/03/27 17:37:04;;;;;;;31.23;4.90;;;9.00;99.90;;;;;;5107427;28;20127;-83
2021/03/27 17:39:55;;;;;;;19.17;3.72;;;8.80;99.90;;;;;;5108071;28;20079;-82
2021/03/27 17:42:38;;;;;;;26.88;4.10;;;8.90;99.90;;;;;;5089080;28;20052;-82
2021/03/27 17:45:31;;;;;;;32.10;4.97;;;8.80;99.90;;;;;;5106450;28;20070;-83
2021/03/27 17:48:23;;;;;;;23.20;4.75;;;8.70;99.90;;;;;;5109106;28;20039;-83
2021/03/27 17:51:19;;;;;;;17.95;3.72;;;8.80;99.90;;;;;;5111913;28;20059;-83
2021/03/27 17:53:51;;;;;;;29.92;4.93;;;8.60;99.90;;;;;;5122717;28;20118;-82
2021/03/27 17:56:38;;;;;;;18.35;3.78;;;8.50;99.90;;;;;;5097999;28;20059;-83
2021/03/27 17:59:30;;;;;;;15.18;4.10;;;8.60;99.90;;;;;;5097821;28;20039;-83
2021/03/27 18:02:15;;;;;;;21.15;4.30;;;8.50;99.90;;;;;;5081734;28;20044;-83
2021/03/27 18:04:44;;;;;;;22.58;3.90;;;8.50;99.90;;;;;;5100076;28;20051;-84
2021/03/27 18:07:23;;;;;;;19.95;3.75;;;8.50;99.90;;;;;;5105713;28;20118;-83
2021/03/27 18:09:56;;;;;;;21.48;4.30;;;8.50;99.90;;;;;;5096193;28;20071;-85
2021/03/27 18:12:31;;;;;;;22.00;4.55;;;8.50;99.90;;;;;;5121743;28;20047;-83
2021/03/27 18:15:31;;;;;;;27.65;4.55;;;8.40;99.90;;;;;;5127679;28;20091;-83
2021/03/27 18:18:18;;;;;;;19.30;4.65;;;8.40;99.90;;;;;;5119154;28;20388;-83
2021/03/27 18:21:10;;;;;;;25.15;3.47;;;8.40;99.90;;;;;;5107855;28;20047;-84
2021/03/27 18:24:00;;;;;;;23.85;4.10;;;8.40;99.90;;;;;;5104715;28;20040;-84
2021/03/27 18:26:41;;;;;;;23.45;4.72;;;8.40;99.90;;;;;;5110145;27;20041;-82
2021/03/27 18:29:22;;;;;;;20.42;3.92;;;8.40;99.90;;;;;;5104690;27;20040;-82
2021/03/27 18:32:04;;;;;;;26.92;4.28;;;8.30;99.90;;;;;;5112446;27;20100;-82
2021/03/27 18:34:48;;;;;;;18.15;4.25;;;8.30;99.90;;;;;;5101353;28;20503;-83
2021/03/27 18:37:29;;;;;;;22.83;4.50;;;8.20;99.90;;;;;;5086403;28;20102;-83
2021/03/27 18:39:57;;;;;;;18.92;3.45;;;8.10;99.90;;;;;;5102115;28;20141;-84
2021/03/27 18:42:25;;;;;;;22.75;3.95;;;8.00;99.90;;;;;;5077514;28;20040;-84
2021/03/27 18:44:56;;;;;;;19.80;4.15;;;8.00;99.90;;;;;;5086035;28;20129;-82
2021/03/27 18:47:31;;;;;;;18.33;5.35;;;7.90;99.90;;;;;;5104973;28;20048;-83
2021/03/27 18:50:03;;;;;;;26.13;4.65;;;8.00;99.90;;;;;;5094202;28;20040;-84
2021/03/27 18:52:30;;;;;;;36.40;5.97;;;7.90;99.90;;;;;;5074419;28;20104;-84
2021/03/27 18:55:04;;;;;;;22.30;4.18;;;7.90;99.90;;;;;;5101402;28;20046;-83
2021/03/27 18:57:38;;;;;;;23.58;5.28;;;7.80;99.90;;;;;;5103533;28;20407;-82
2021/03/27 19:00:24;;;;;;;32.10;4.03;;;7.70;99.90;;;;;;5088723;28;20147;-83
2021/03/27 19:02:57;;;;;;;18.13;3.38;;;7.50;99.90;;;;;;5097937;28;20043;-85
2021/03/27 19:05:29;;;;;;;24.05;4.50;;;7.60;99.90;;;;;;5102792;28;20052;-85
2021/03/27 19:08:22;;;;;;;28.27;4.43;;;7.70;99.90;;;;;;5099933;28;20031;-82
2021/03/27 19:10:51;;;;;;;20.23;4.47;;;7.60;99.90;;;;;;5103969;28;20097;-83
2021/03/27 19:13:26;;;;;;;28.63;4.40;;;7.60;99.90;;;;;;5104720;28;20084;-83
2021/03/27 19:16:07;;;;;;;25.63;4.55;;;7.60;99.90;;;;;;5088873;28;20055;-82
2021/03/27 19:18:44;;;;;;;21.98;4.43;;;7.40;99.90;;;;;;5072818;28;20040;-81
2021/03/27 19:21:21;;;;;;;17.00;3.50;;;7.50;99.90;;;;;;5098631;28;20039;-83
2021/03/27 19:24:08;;;;;;;27.58;6.15;;;7.50;99.90;;;;;;5105671;28;20039;-84
2021/03/27 19:26:45;;;;;;;25.98;4.65;;;7.30;99.90;;;;;;5091199;28;20035;-83
2021/03/27 19:29:31;;;;;;;24.23;4.43;;;7.20;99.90;;;;;;5100322;28;20582;-84
2021/03/27 19:32:14;;;;;;;26.42;7.35;;;7.20;99.90;;;;;;5105452;28;20066;-83
2021/03/27 19:34:55;;;;;;;;;;;7.10;99.90;;;;;;5105375;28;20123;-84
2021/03/27 19:37:24;;;;;;;24.95;5.05;;;7.20;99.90;;;;;;5105715;28;20446;-82
2021/03/27 19:40:12;;;;;;;24.95;5.22;;;7.00;99.90;;;;;;5106456;28;20271;-83
2021/03/27 19:43:18;;;;;;;22.90;5.32;;;7.00;99.90;;;;;;5099978;28;20047;-83
2021/03/27 19:45:48;;;;;;;21.02;4.32;;;6.90;99.90;;;;;;5091571;28;20048;-83
2021/03/27 19:48:19;;;;;;;25.98;3.95;;;6.70;99.90;;;;;;5099242;28;20036;-83
2021/03/27 19:51:14;;;;;;;18.98;4.25;;;6.70;99.90;;;;;;5105222;28;20100;-82
2021/03/27 19:54:01;;;;;;;26.48;5.40;;;6.50;99.90;;;;;;5102911;28;20515;-83
2021/03/27 19:56:51;;;;;;;19.30;4.03;;;6.40;99.90;;;;;;5085720;28;20052;-84
2021/03/27 19:59:34;;;;;;;25.15;5.68;;;6.20;99.90;;;;;;5038282;28;20116;-84
2021/03/27 20:02:08;;;;;;;30.27;4.35;;;6.20;99.90;;;;;;5105784;28;20248;-82
2021/03/27 20:05:00;;;;;;;22.08;4.72;;;6.10;99.90;;;;;;5103496;28;20040;-83
2021/03/27 20:07:34;;;;;;;20.75;4.63;;;6.10;99.90;;;;;;5105346;28;20070;-83
2021/03/27 20:10:12;;;;;;;19.45;4.07;;;6.00;99.90;;;;;;5092578;28;20048;-83
2021/03/27 20:12:45;;;;;;;22.00;4.30;;;6.00;99.90;;;;;;5083928;28;20048;-83
2021/03/27 20:15:45;;;;;;;21.77;4.00;;;6.00;99.90;;;;;;5097514;28;20739;-83
2021/03/27 20:18:17;;;;;;;16.55;4.25;;;5.90;99.90;;;;;;5103810;28;20404;-82
2021/03/27 20:20:53;;;;;;;19.77;4.78;;;6.00;99.90;;;;;;5105964;28;20093;-83
2021/03/27 20:23:29;;;;;;;28.05;5.22;;;5.90;99.90;;;;;;5095556;28;20120;-82
2021/03/27 20:26:21;;;;;;;17.45;4.32;;;5.90;99.90;;;;;;5099621;28;20040;-82
2021/03/27 20:28:58;;;;;;;23.77;4.10;;;5.90;99.90;;;;;;5100929;28;20507;-84
2021/03/27 20:31:51;;;;;;;26.17;4.47;;;5.90;99.90;;;;;;5108656;28;20515;-83
2021/03/27 20:34:23;;;;;;;24.90;4.45;;;5.80;99.90;;;;;;5091540;28;20500;-81
2021/03/27 20:37:02;;;;;;;21.65;3.45;;;5.90;99.90;;;;;;5109272;28;20122;-82
2021/03/27 20:40:05;;;;;;;21.75;3.33;;;5.90;99.90;;;;;;5108591;28;20040;-83
2021/03/27 20:42:51;;;;;;;34.70;4.78;;;5.80;99.90;;;;;;5111845;28;20047;-81
2021/03/27 20:45:50;;;;;;;24.80;4.25;;;5.80;99.90;;;;;;5093090;28;20143;-84
2021/03/27 20:48:49;;;;;;;19.35;4.90;;;5.90;99.90;;;;;;5094517;28;20111;-83
2021/03/27 20:51:34;;;;;;;27.85;5.30;;;5.90;99.90;;;;;;5108003;28;20120;-85
2021/03/27 20:54:27;;;;;;;32.15;7.85;;;5.80;99.90;;;;;;5101094;28;20048;-84
2021/03/27 20:57:16;;;;;;;33.38;5.43;;;5.80;99.90;;;;;;5089204;28;20503;-84
2021/03/27 21:00:14;;;;;;;25.55;5.25;;;5.80;99.90;;;;;;5091761;28;20103;-84
2021/03/27 21:03:04;;;;;;;30.92;5.50;;;5.80;99.90;;;;;;5091688;28;20085;-84
2021/03/27 21:05:48;;;;;;;26.83;4.90;;;5.70;99.90;;;;;;5088962;28;20051;-84
2021/03/27 21:08:42;;;;;;;25.50;5.78;;;5.70;99.90;;;;;;5090882;28;20044;-84
2021/03/27 21:11:15;;;;;;;29.20;5.25;;;5.70;99.90;;;;;;5094117;28;20059;-83
2021/03/27 21:14:19;;;;;;;29.50;4.93;;;5.70;99.90;;;;;;5075792;28;20568;-83
2021/03/27 21:16:59;;;;;;;26.75;5.13;;;5.70;99.90;;;;;;5018872;28;20565;-83
2021/03/27 21:19:41;;;;;;;29.00;6.53;;;5.80;99.90;;;;;;5079688;28;20060;-82
2021/03/27 21:22:44;;;;;;;35.17;6.97;;;5.80;99.90;;;;;;5099690;28;20135;-82
2021/03/27 21:25:22;;;;;;;29.40;5.35;;;5.80;99.90;;;;;;5089295;28;20046;-82
2021/03/27 21:28:04;;;;;;;33.42;6.25;;;5.90;99.90;;;;;;5106787;28;20126;-84
2021/03/27 21:30:32;;;;;;;25.25;5.80;;;5.80;99.90;;;;;;5091625;28;20058;-84
2021/03/27 21:33:32;;;;;;;27.08;5.93;;;5.90;99.90;;;;;;5096608;28;20040;-84
2021/03/27 21:36:26;;;;;;;27.23;5.47;;;5.90;99.90;;;;;;5075984;28;20048;-83
2021/03/27 21:39:19;;;;;;;25.92;5.70;;;5.90;99.90;;;;;;5089761;28;20051;-83
2021/03/27 21:42:03;;;;;;;24.95;5.25;;;6.00;99.90;;;;;;5106179;28;20337;-83
2021/03/27 21:44:52;;;;;;;26.77;6.15;;;6.00;99.90;;;;;;5084131;28;20401;-83